Time;durP1;ratioP1;P1;durP2;ratioP2;P2;SDS_P1;SDS_P2;PMS_P1;PMS_P2;Temp;Humidity;BMP_temperature;BMP_pressure;BME280_temperature;BME280_humidity;BME280_pressure;Samples;Min_cycle;Max_cycle;Signal;HPM_P1;HPM_P2
2021/03/27 00:04:19;;;;;;;10.63;5.53;;;;;;;9.35;43.43;99163.44;10544756;28;20055;-53
2021/03/27 00:09:34;;;;;;;10.50;5.00;;;;;;;9.31;43.72;99156.84;10545108;28;20051;-55
2021/03/27 00:14:39;;;;;;;;;;;;;;;9.32;42.94;99163.72;10545109;28;20047;-53
2021/03/27 00:19:46;;;;;;;14.05;5.80;;;;;;;9.43;42.84;99155.75;10545323;28;19946;-61
2021/03/27 00:25:05;;;;;;;11.15;5.68;;;;;;;9.48;43.16;99155.31;10546202;28;20051;-56
2021/03/27 00:30:13;;;;;;;13.52;5.85;;;;;;;9.48;43.04;99156.13;10544036;28;20050;-53
2021/03/27 00:35:18;;;;;;;11.10;5.38;;;;;;;9.46;43.00;99155.47;10543945;28;20046;-55
2021/03/27 00:40:22;;;;;;;11.18;6.20;;;;;;;9.46;43.05;99160.72;10542574;28;20236;-55
2021/03/27 00:45:29;;;;;;;13.70;6.55;;;;;;;9.47;43.10;99165.00;10543759;28;20059;-54
2021/03/27 00:50:37;;;;;;;13.43;6.53;;;;;;;9.47;43.02;99165.00;10543294;28;20763;-55
2021/03/27 00:55:46;;;;;;;12.15;6.15;;;;;;;9.41;43.17;99162.91;10542041;28;20048;-53
2021/03/27 01:00:49;;;;;;;12.18;6.85;;;;;;;9.30;43.43;99163.03;10545252;28;20039;-58
2021/03/27 01:05:55;;;;;;;11.00;6.05;;;;;;;9.28;43.51;99173.66;10544795;28;20461;-54
2021/03/27 01:11:22;;;;;;;16.73;7.07;;;;;;;9.27;43.55;99177.25;10501000;28;20504;-53
2021/03/27 01:16:34;;;;;;;14.05;6.10;;;;;;;9.23;43.62;99171.44;10502551;28;20090;-53
2021/03/27 01:21:38;;;;;;;12.52;6.03;;;;;;;9.11;43.87;99180.41;10498890;28;20388;-57
2021/03/27 01:26:48;;;;;;;12.82;6.50;;;;;;;9.09;43.95;99171.84;10501594;28;20067;-54
2021/03/27 01:31:54;;;;;;;12.05;6.10;;;;;;;9.04;44.25;99179.25;10502058;28;20079;-58
2021/03/27 01:37:04;;;;;;;12.40;6.00;;;;;;;8.98;44.12;99179.78;10503617;28;20048;-53
2021/03/27 01:42:14;;;;;;;11.43;6.05;;;;;;;9.10;43.85;99183.97;10499243;28;20048;-53
2021/03/27 01:47:28;;;;;;;9.02;5.43;;;;;;;9.07;43.96;99181.63;10498386;28;20070;-55
2021/03/27 01:52:44;;;;;;;9.75;5.40;;;;;;;8.98;44.18;99185.03;10499307;28;20051;-54
2021/03/27 01:57:53;;;;;;;13.38;6.05;;;;;;;8.98;43.94;99188.47;10499390;28;20119;-53
2021/03/27 02:03:08;;;;;;;10.43;5.43;;;;;;;8.99;44.23;99189.34;10499197;28;20044;-54
2021/03/27 02:08:18;;;;;;;13.82;5.43;;;;;;;9.05;43.77;99194.06;10514284;28;20044;-53
2021/03/27 02:13:27;;;;;;;11.43;5.97;;;;;;;9.05;43.92;99194.06;10540502;28;20089;-55
2021/03/27 02:18:41;;;;;;;11.05;5.00;;;;;;;9.07;43.87;99193.91;10539992;28;20354;-53
2021/03/27 02:24:03;;;;;;;13.30;5.80;;;;;;;9.12;43.53;99200.41;10541521;28;20060;-53
2021/03/27 02:29:51;;;;;;;12.70;5.97;;;;;;;9.17;43.60;99198.19;10547709;28;20461;-53
2021/03/27 02:34:59;;;;;;;10.50;4.82;;;;;;;9.19;43.24;99185.78;10549649;28;20055;-53
2021/03/27 02:40:06;;;;;;;10.15;5.38;;;;;;;9.16;42.99;99186.06;10548983;28;20435;-52
2021/03/27 02:45:16;;;;;;;13.10;6.05;;;;;;;9.10;43.69;99191.00;10547978;28;20044;-55
2021/03/27 02:50:31;;;;;;;11.00;5.65;;;;;;;9.08;43.52;99188.53;10548367;28;20376;-53
2021/03/27 02:55:39;;;;;;;9.70;5.97;;;;;;;9.05;43.46;99199.28;10547523;28;20071;-53
2021/03/27 03:00:54;;;;;;;10.40;5.95;;;;;;;8.98;43.54;99198.97;10547617;28;20048;-64
2021/03/27 03:06:01;;;;;;;12.13;5.85;;;;;;;9.01;43.42;99192.63;10547726;28;20044;-53
2021/03/27 03:11:13;;;;;;;11.85;5.20;;;;;;;8.97;43.53;99197.31;10547419;28;20426;-53
2021/03/27 03:16:23;;;;;;;14.80;6.68;;;;;;;8.94;43.81;99199.38;10547202;28;20059;-53
2021/03/27 03:21:31;;;;;;;9.57;5.03;;;;;;;8.99;43.76;99202.44;10545576;28;20396;-54
2021/03/27 03:26:40;;;;;;;10.57;5.13;;;;;;;8.97;43.49;99205.19;10549567;28;20051;-62
2021/03/27 03:31:53;;;;;;;12.52;6.55;;;;;;;8.83;44.20;99215.19;10549444;28;20480;-58
2021/03/27 03:37:07;;;;;;;13.00;5.70;;;;;;;8.80;44.07;99218.06;10545165;28;20044;-53
2021/03/27 03:42:33;;;;;;;10.95;5.93;;;;;;;8.85;43.93;99213.28;10547774;28;20048;-56
2021/03/27 03:47:54;;;;;;;14.55;5.55;;;;;;;8.87;43.92;99222.69;10549336;28;20350;-53
2021/03/27 03:53:33;;;;;;;13.35;5.70;;;;;;;8.88;43.90;99219.09;10546289;28;20052;-53
2021/03/27 03:59:12;;;;;;;11.27;5.30;;;;;;;8.95;43.77;99224.63;10532911;28;20048;-53
2021/03/27 04:04:20;;;;;;;14.32;6.22;;;;;;;8.97;43.71;99231.41;10545830;28;20059;-53
2021/03/27 04:09:26;;;;;;;9.25;4.97;;;;;;;9.18;43.30;99235.75;10546531;28;20056;-56
2021/03/27 04:14:47;;;;;;;11.57;5.75;;;;;;;9.17;43.36;99240.16;10545088;28;20104;-54
2021/03/27 04:19:57;;;;;;;9.07;5.05;;;;;;;9.17;43.33;99236.72;10545334;28;20052;-55
2021/03/27 04:25:11;;;;;;;10.65;5.32;;;;;;;9.30;43.15;99239.09;10543939;28;20063;-53
2021/03/27 04:30:27;;;;;;;9.93;5.40;;;;;;;9.29;42.96;99237.44;10544012;28;20477;-61
2021/03/27 04:35:55;;;;;;;11.30;5.32;;;;;;;9.34;42.96;99253.63;10543323;28;20074;-55
2021/03/27 04:41:07;;;;;;;9.68;5.05;;;;;;;9.28;43.01;99251.53;10543438;28;20071;-52
2021/03/27 04:46:13;;;;;;;12.20;4.65;;;;;;;9.14;43.19;99256.19;10541932;28;20140;-52
2021/03/27 04:51:48;;;;;;;9.13;4.63;;;;;;;9.08;43.50;99256.72;10542570;28;20473;-53
2021/03/27 04:57:02;;;;;;;10.25;4.90;;;;;;;9.14;43.12;99260.56;10542860;28;20381;-55
2021/03/27 05:02:05;;;;;;;;;;;;;;;9.29;42.80;99274.16;10518527;28;20049;-54
2021/03/27 05:07:13;;;;;;;12.10;5.22;;;;;;;9.52;42.49;99274.78;10508634;28;19924;-54
2021/03/27 05:12:21;;;;;;;9.93;3.60;;;;;;;9.71;41.99;99285.31;10542650;28;20396;-53
2021/03/27 05:17:34;;;;;;;12.82;5.35;;;;;;;9.83;41.99;99294.75;10542353;28;20048;-55
2021/03/27 05:22:48;;;;;;;9.98;4.50;;;;;;;10.05;41.57;99298.91;10541504;28;20056;-53
2021/03/27 05:28:12;;;;;;;11.15;4.65;;;;;;;10.22;41.22;99297.41;10542470;28;20126;-52
2021/03/27 05:33:26;;;;;;;11.65;5.32;;;;;;;10.30;40.42;99294.94;10542891;28;20116;-54
2021/03/27 05:38:38;;;;;;;11.23;5.07;;;;;;;10.34;40.67;99298.09;10542530;28;20040;-53
2021/03/27 05:44:01;;;;;;;13.32;5.20;;;;;;;10.64;40.06;99312.06;10546943;28;20044;-54
2021/03/27 05:49:36;;;;;;;12.60;5.40;;;;;;;10.83;39.85;99320.72;10540098;28;20130;-53
2021/03/27 05:55:19;;;;;;;11.40;4.47;;;;;;;11.40;38.82;99319.88;10541196;28;20100;-56
2021/03/27 06:00:33;;;;;;;13.40;5.82;;;;;;;11.70;38.18;99324.03;10539195;28;20052;-54
2021/03/27 06:06:08;;;;;;;16.02;6.18;;;;;;;12.09;37.34;99323.78;10539249;28;20040;-53
2021/03/27 06:11:27;;;;;;;14.43;5.78;;;;;;;12.75;36.55;99330.47;10517499;28;20411;-53
2021/03/27 06:17:04;;;;;;;16.05;5.60;;;;;;;13.09;36.17;99331.38;10496695;28;20044;-53
2021/03/27 06:22:20;;;;;;;12.98;5.38;;;;;;;13.61;35.53;99333.13;10496245;28;20049;-54
2021/03/27 06:28:01;;;;;;;16.45;7.03;;;;;;;14.40;34.62;99334.47;10497008;28;20083;-54
2021/03/27 06:33:51;;;;;;;16.33;7.05;;;;;;;14.53;33.37;99341.94;10480915;28;20481;-54
2021/03/27 06:39:28;;;;;;;17.85;7.13;;;;;;;14.28;33.45;99346.34;10391608;28;20056;-52
2021/03/27 06:45:00;;;;;;;17.80;8.25;;;;;;;14.82;33.01;99337.97;10495960;28;20505;-56
2021/03/27 06:50:32;;;;;;;18.02;8.95;;;;;;;15.41;32.12;99343.81;10496352;28;20401;-53
2021/03/27 06:56:04;;;;;;;23.02;9.13;;;;;;;15.90;31.00;99348.13;10496999;28;20044;-53
2021/03/27 07:01:47;;;;;;;22.67;9.05;;;;;;;16.10;30.43;99344.84;10497598;28;20044;-53
2021/03/27 07:07:29;;;;;;;21.35;9.40;;;;;;;17.10;29.53;99351.06;10497701;28;20067;-56
2021/03/27 07:12:59;;;;;;;15.00;7.85;;;;;;;17.93;28.72;99355.28;10500451;28;20369;-56
2021/03/27 07:18:16;;;;;;;20.75;8.93;;;;;;;18.93;27.63;99348.28;10496248;28;20067;-54
2021/03/27 07:23:47;;;;;;;15.82;8.07;;;;;;;22.88;24.94;99354.00;10500937;28;20059;-56
2021/03/27 07:29:05;;;;;;;15.82;8.13;;;;;;;29.60;19.23;99342.75;10503959;28;20067;-55
2021/03/27 07:34:42;;;;;;;17.98;9.13;;;;;;;28.05;17.60;99351.78;10507326;28;20147;-55
2021/03/27 07:39:59;;;;;;;15.13;7.20;;;;;;;27.18;18.27;99353.38;10507094;28;20056;-54
2021/03/27 07:45:09;;;;;;;14.70;7.05;;;;;;;28.19;16.48;99361.94;10507136;28;20045;-54
2021/03/27 07:50:49;;;;;;;15.45;7.13;;;;;;;27.74;16.41;99359.50;10510430;28;20062;-58
2021/03/27 07:56:38;;;;;;;16.40;7.80;;;;;;;26.49;16.71;99357.13;10409165;28;20056;-55
2021/03/27 08:01:59;;;;;;;15.93;7.10;;;;;;;27.12;16.69;99375.91;10335080;28;20061;-56
2021/03/27 08:07:08;;;;;;;15.63;7.13;;;;;;;30.40;13.81;99369.59;10481508;28;20060;-56
2021/03/27 08:12:30;;;;;;;13.30;6.13;;;;;;;32.62;12.56;99364.09;10504005;28;20052;-56
2021/03/27 08:17:45;;;;;;;13.80;5.97;;;;;;;35.46;10.86;99368.72;10502746;28;20052;-56
2021/03/27 08:23:10;;;;;;;14.45;6.22;;;;;;;34.46;11.20;99362.81;10502013;28;20217;-55
2021/03/27 08:28:53;;;;;;;11.23;5.97;;;;;;;37.02;9.43;99377.56;10501416;28;20181;-55
2021/03/27 08:34:30;;;;;;;14.23;5.55;;;;;;;37.81;8.81;99375.13;10498733;28;20497;-56
2021/03/27 08:40:01;;;;;;;10.20;5.47;;;;;;;36.68;8.54;99371.88;10502501;28;20040;-55
2021/03/27 08:45:26;;;;;;;11.82;5.03;;;;;;;38.00;7.81;99353.75;10492515;28;20185;-56
2021/03/27 08:51:08;;;;;;;13.73;4.80;;;;;;;37.60;7.40;99369.47;10500927;28;20469;-56
2021/03/27 08:56:28;;;;;;;11.07;4.97;;;;;;;37.67;7.27;99362.38;10501001;28;20044;-56
2021/03/27 09:01:52;;;;;;;11.38;4.47;;;;;;;38.94;6.85;99358.69;10501133;28;20044;-57
2021/03/27 09:07:10;;;;;;;11.77;4.40;;;;;;;38.15;6.62;99372.47;10501663;28;20429;-55
2021/03/27 09:12:29;;;;;;;9.48;3.67;;;;;;;37.95;6.53;99379.38;10500817;28;20097;-54
2021/03/27 09:17:47;;;;;;;8.40;3.97;;;;;;;37.54;6.96;99374.28;10499731;28;20071;-56
2021/03/27 09:22:58;;;;;;;11.02;4.53;;;;;;;37.20;6.82;99377.69;10500813;28;20060;-56
2021/03/27 09:28:16;;;;;;;11.10;4.13;;;;;;;37.95;7.14;99373.91;10501197;28;20606;-56
2021/03/27 09:33:26;;;;;;;7.85;3.70;;;;;;;36.96;6.91;99381.53;10503692;28;20047;-55
2021/03/27 09:38:38;;;;;;;11.35;4.18;;;;;;;35.88;7.62;99377.75;10500074;28;20048;-56
2021/03/27 09:44:10;;;;;;;8.07;4.60;;;;;;;33.65;8.75;99381.91;10499543;28;20059;-57
2021/03/27 09:49:29;;;;;;;10.05;4.80;;;;;;;31.52;9.52;99387.75;10500410;28;20040;-55
2021/03/27 09:54:40;;;;;;;9.65;5.20;;;;;;;27.72;11.74;99391.38;10500826;28;20052;-55
2021/03/27 09:59:46;;;;;;;11.93;4.57;;;;;;;24.81;13.30;99394.69;10514877;28;20073;-55
2021/03/27 10:05:13;;;;;;;9.65;4.60;;;;;;;23.19;14.54;99397.91;10500466;28;20076;-56
2021/03/27 10:10:37;;;;;;;11.32;4.57;;;;;;;21.84;15.40;99398.88;10499904;28;20477;-55
2021/03/27 10:15:46;;;;;;;13.32;5.05;;;;;;;20.85;16.47;99396.31;10499663;28;20044;-55
